createdAt,value
2023-04-28T00:01:15.693Z,16.30
2023-04-28T00:03:36.861Z,16.30
2023-04-28T00:06:34.859Z,16.30
2023-04-28T00:09:14.574Z,16.30
2023-04-28T00:11:54.858Z,16.30
2023-04-28T00:14:53.999Z,16.30
2023-04-28T00:17:15.945Z,16.30
2023-04-28T00:20:14.934Z,16.30
2023-04-28T00:22:54.091Z,16.30
2023-04-28T00:25:33.048Z,16.30
2023-04-28T00:27:53.460Z,16.30
2023-04-28T00:30:32.317Z,16.20
2023-04-28T00:33:13.597Z,16.20
2023-04-28T00:35:52.753Z,16.20
2023-04-28T00:38:50.467Z,16.20
2023-04-28T00:41:49.822Z,16.20
2023-04-28T00:44:30.831Z,16.20
2023-04-28T00:46:51.271Z,16.20
2023-04-28T00:49:31.321Z,16.10
2023-04-28T00:51:51.760Z,16.10
2023-04-28T00:54:30.789Z,16.10
2023-04-28T00:57:29.125Z,16.10
2023-04-28T01:00:26.997Z,16.10
2023-04-28T01:03:06.457Z,16.00
2023-04-28T01:06:04.534Z,16.00
2023-04-28T01:09:02.374Z,16.00
2023-04-28T01:11:41.702Z,16.00
2023-04-28T01:14:04.600Z,16.00
2023-04-28T01:17:08.661Z,16.00
2023-04-28T01:19:47.742Z,16.00
2023-04-28T01:22:27.359Z,16.00
2023-04-28T01:25:07.049Z,16.00
2023-04-28T01:27:46.228Z,16.00
2023-04-28T01:30:06.793Z,16.00
2023-04-28T01:32:27.217Z,15.90
2023-04-28T01:35:24.988Z,15.90
2023-04-28T01:38:04.265Z,15.90
2023-04-28T01:41:02.946Z,15.90
2023-04-28T01:43:42.306Z,15.80
2023-04-28T01:46:22.129Z,15.80
2023-04-28T01:49:02.302Z,15.80
2023-04-28T01:51:22.573Z,15.80
2023-04-28T01:54:01.328Z,15.80
2023-04-28T01:56:59.150Z,15.80
2023-04-28T01:59:39.564Z,15.70
2023-04-28T02:02:18.637Z,15.70
2023-04-28T02:04:58.162Z,15.70
2023-04-28T02:07:37.262Z,15.70
2023-04-28T02:10:16.672Z,15.70
2023-04-28T02:12:55.673Z,15.80
2023-04-28T02:15:34.791Z,15.70
2023-04-28T02:18:13.865Z,15.80
2023-04-28T02:20:52.952Z,15.70
2023-04-28T02:23:31.971Z,15.80
2023-04-28T02:26:10.903Z,15.80
2023-04-28T02:28:50.469Z,15.80
2023-04-28T02:31:29.309Z,15.70
2023-04-28T02:34:08.225Z,15.70
2023-04-28T02:36:46.871Z,15.70
2023-04-28T02:39:07.551Z,15.70
2023-04-28T02:41:31.632Z,15.70
2023-04-28T02:44:29.674Z,15.70
2023-04-28T02:47:11.044Z,15.70
2023-04-28T02:49:50.414Z,15.70
2023-04-28T02:52:30.640Z,15.70
2023-04-28T02:55:28.518Z,15.70
2023-04-28T02:57:49.456Z,15.70
2023-04-28T03:00:28.197Z,15.70
2023-04-28T03:02:48.520Z,15.70
2023-04-28T03:05:09.383Z,15.70
2023-04-28T03:07:48.956Z,15.70
2023-04-28T03:10:28.591Z,15.70
2023-04-28T03:12:49.365Z,15.70
2023-04-28T03:15:47.029Z,15.70
2023-04-28T03:18:26.066Z,15.60
2023-04-28T03:21:24.356Z,15.60
2023-04-28T03:23:44.696Z,15.60
2023-04-28T03:26:23.508Z,15.60
2023-04-28T03:29:02.589Z,15.60
2023-04-28T03:31:41.436Z,15.60
2023-04-28T03:34:21.406Z,15.60
2023-04-28T03:37:00.339Z,15.60
2023-04-28T03:39:20.764Z,15.60
2023-04-28T03:41:41.846Z,15.60
2023-04-28T03:44:03.903Z,15.60
2023-04-28T03:46:43.642Z,15.60
2023-04-28T03:49:22.577Z,15.60
2023-04-28T03:52:04.334Z,15.60
2023-04-28T03:54:24.405Z,15.60
2023-04-28T03:57:04.426Z,15.60
2023-04-28T03:59:43.188Z,15.60
2023-04-28T04:02:22.587Z,15.60
2023-04-28T04:04:43.874Z,15.60
2023-04-28T04:07:04.228Z,15.60
2023-04-28T04:09:24.432Z,15.60
2023-04-28T04:12:03.230Z,15.70
2023-04-28T04:14:43.525Z,15.60
2023-04-28T04:17:04.909Z,15.60
2023-04-28T04:19:44.888Z,15.60
2023-04-28T04:22:23.939Z,15.70
2023-04-28T04:25:23.321Z,15.70
2023-04-28T04:28:02.749Z,15.70
2023-04-28T04:31:01.246Z,15.70
2023-04-28T04:33:40.058Z,15.70
2023-04-28T04:36:19.030Z,15.70
2023-04-28T04:38:58.220Z,15.70
2023-04-28T04:41:55.986Z,15.70
2023-04-28T04:44:16.456Z,15.70
2023-04-28T04:47:15.138Z,15.70
2023-04-28T04:49:54.709Z,15.70
2023-04-28T04:52:34.612Z,15.70
2023-04-28T04:55:13.359Z,15.70
2023-04-28T04:57:52.352Z,15.70
2023-04-28T05:00:31.638Z,15.70
2023-04-28T05:02:52.232Z,15.70
2023-04-28T05:05:21.315Z,15.70
2023-04-28T05:07:42.812Z,15.70
2023-04-28T05:10:21.946Z,15.70
2023-04-28T05:13:00.886Z,15.70
2023-04-28T05:15:41.460Z,15.70
2023-04-28T05:18:21.775Z,15.70
2023-04-28T05:20:42.030Z,15.70
2023-04-28T05:23:21.573Z,15.70
2023-04-28T05:26:00.589Z,15.70
2023-04-28T05:28:40.035Z,15.70
2023-04-28T05:31:19.442Z,15.70
2023-04-28T05:34:19.619Z,15.70
2023-04-28T05:36:59.181Z,15.70
2023-04-28T05:39:19.460Z,15.70
2023-04-28T05:42:17.471Z,15.70
2023-04-28T05:45:18.387Z,15.70
2023-04-28T05:47:57.752Z,15.70
2023-04-28T05:50:55.994Z,15.70
2023-04-28T05:53:35.103Z,15.70
2023-04-28T05:56:16.220Z,15.70
2023-04-28T05:59:18.882Z,15.80
2023-04-28T06:02:24.233Z,15.80
2023-04-28T06:05:29.785Z,15.80
2023-04-28T06:08:30.640Z,15.70
2023-04-28T06:11:13.430Z,15.80
2023-04-28T06:13:54.344Z,15.70
2023-04-28T06:16:37.013Z,15.70
2023-04-28T06:19:38.308Z,15.70
2023-04-28T06:22:40.628Z,15.80
2023-04-28T06:25:47.746Z,15.70
2023-04-28T06:28:54.650Z,15.70
2023-04-28T06:31:58.902Z,15.70
2023-04-28T06:34:38.131Z,15.70
2023-04-28T06:36:41.185Z,15.70
2023-04-28T06:39:01.894Z,15.70
2023-04-28T06:41:41.103Z,15.70
2023-04-28T06:44:01.546Z,15.70
2023-04-28T06:46:05.012Z,15.70
2023-04-28T06:48:25.509Z,15.70
2023-04-28T06:51:04.615Z,15.70
2023-04-28T06:53:43.744Z,15.70
2023-04-28T06:55:45.522Z,15.70
2023-04-28T06:58:24.151Z,15.70
2023-04-28T07:01:22.294Z,15.70
2023-04-28T07:03:24.321Z,15.70
2023-04-28T07:05:45.079Z,15.70
2023-04-28T07:08:43.277Z,15.70
2023-04-28T07:11:41.438Z,15.70
2023-04-28T07:13:43.228Z,15.70
2023-04-28T07:16:41.328Z,15.70
2023-04-28T07:19:01.639Z,15.70
2023-04-28T07:21:05.377Z,15.70
2023-04-28T07:23:07.410Z,15.70
2023-04-28T07:25:46.534Z,15.70
2023-04-28T07:28:06.911Z,15.70
2023-04-28T07:30:45.918Z,15.70
2023-04-28T07:33:44.302Z,15.70
2023-04-28T07:36:23.680Z,15.70
2023-04-28T07:38:25.371Z,15.80
2023-04-28T07:40:45.996Z,15.80
2023-04-28T07:43:25.443Z,15.80
2023-04-28T07:46:04.930Z,15.80
2023-04-28T07:48:25.145Z,15.80
2023-04-28T07:50:45.635Z,15.80
2023-04-28T07:53:24.711Z,15.80
2023-04-28T07:56:03.816Z,15.80
2023-04-28T07:58:42.942Z,15.80
2023-04-28T08:01:41.130Z,15.80
2023-04-28T08:04:01.719Z,15.90
2023-04-28T08:06:41.174Z,15.90
2023-04-28T08:09:02.395Z,15.90
2023-04-28T08:11:04.198Z,15.90
2023-04-28T08:13:24.257Z,15.90
2023-04-28T08:15:44.361Z,15.90
2023-04-28T08:18:23.361Z,16.00
2023-04-28T08:21:21.472Z,16.00
2023-04-28T08:24:01.712Z,16.00
2023-04-28T08:26:40.897Z,16.00
2023-04-28T08:28:43.264Z,16.00
2023-04-28T08:31:05.391Z,16.00
2023-04-28T08:33:44.653Z,16.00
2023-04-28T08:36:42.444Z,16.00
2023-04-28T08:39:04.110Z,16.00
2023-04-28T08:41:43.841Z,16.00
2023-04-28T08:43:45.714Z,16.00
2023-04-28T08:46:43.939Z,16.00
2023-04-28T08:49:42.037Z,16.10
2023-04-28T08:52:09.141Z,16.10
2023-04-28T08:54:32.326Z,16.10
2023-04-28T08:56:53.067Z,16.10
2023-04-28T08:59:50.714Z,16.10
2023-04-28T09:02:48.893Z,16.10
2023-04-28T09:05:09.794Z,16.20
2023-04-28T09:07:30.393Z,16.20
2023-04-28T09:09:51.020Z,16.20
2023-04-28T09:11:59.624Z,16.20
2023-04-28T09:14:38.802Z,16.20
2023-04-28T09:17:17.777Z,16.20
2023-04-28T09:19:57.062Z,16.30
2023-04-28T09:22:55.006Z,16.30
2023-04-28T09:25:15.221Z,16.30
2023-04-28T09:28:13.338Z,16.40
2023-04-28T09:30:33.826Z,16.30
2023-04-28T09:33:05.337Z,16.40
2023-04-28T09:35:28.040Z,16.40
2023-04-28T09:38:10.516Z,16.40
2023-04-28T09:40:30.979Z,16.50
2023-04-28T09:43:00.875Z,16.40
2023-04-28T09:46:02.677Z,16.40
2023-04-28T09:49:00.998Z,16.50
2023-04-28T09:51:59.125Z,16.50
2023-04-28T09:54:38.520Z,16.50
2023-04-28T09:56:59.889Z,16.50
2023-04-28T09:59:57.753Z,16.50
2023-04-28T10:05:00.932Z,16.60
2023-04-28T10:07:59.427Z,16.60
2023-04-28T10:10:57.192Z,16.60
2023-04-28T10:13:00.576Z,16.60
2023-04-28T10:15:02.654Z,16.70
2023-04-28T10:17:41.947Z,16.70
2023-04-28T10:20:23.642Z,16.70
2023-04-28T10:23:02.933Z,16.70
2023-04-28T10:25:23.273Z,16.70
2023-04-28T10:28:20.913Z,16.80
2023-04-28T10:30:28.211Z,16.80
2023-04-28T10:33:09.666Z,16.80
2023-04-28T10:35:30.660Z,16.80
2023-04-28T10:38:12.187Z,16.90
2023-04-28T10:40:34.117Z,16.90
2023-04-28T10:43:13.271Z,16.90
2023-04-28T10:46:07.445Z,17.00
2023-04-28T10:49:05.570Z,17.00
2023-04-28T10:51:44.960Z,17.00
2023-04-28T10:54:24.777Z,17.00
2023-04-28T10:56:46.025Z,17.00
2023-04-28T10:58:51.752Z,17.00
2023-04-28T11:01:21.722Z,17.00
2023-04-28T11:03:42.624Z,17.10
2023-04-28T11:06:21.724Z,17.10
2023-04-28T11:09:01.173Z,17.10
2023-04-28T11:11:34.745Z,17.10
2023-04-28T11:14:14.256Z,17.10
2023-04-28T11:16:34.867Z,17.20
2023-04-28T11:19:13.910Z,17.20
2023-04-28T11:22:12.305Z,17.20
2023-04-28T11:24:53.962Z,17.20
2023-04-28T11:26:56.460Z,17.30
2023-04-28T11:28:58.539Z,17.30
2023-04-28T11:31:37.681Z,17.30
2023-04-28T11:33:39.680Z,17.40
2023-04-28T11:35:41.760Z,17.40
2023-04-28T11:38:02.017Z,17.40
2023-04-28T11:40:22.425Z,17.40
2023-04-28T11:42:49.048Z,17.50
2023-04-28T11:45:27.927Z,17.50
2023-04-28T11:47:49.366Z,17.50
2023-04-28T11:50:28.398Z,17.50
2023-04-28T11:52:49.853Z,17.60
2023-04-28T11:54:53.695Z,17.60
2023-04-28T11:57:14.808Z,17.70
2023-04-28T11:59:54.410Z,17.60
2023-04-28T12:02:33.651Z,17.60
2023-04-28T12:05:31.797Z,17.60
2023-04-28T12:08:11.050Z,17.70
2023-04-28T12:10:50.452Z,17.70
2023-04-28T12:13:16.776Z,17.60
2023-04-28T12:15:56.084Z,17.70
2023-04-28T12:18:19.449Z,17.70
2023-04-28T12:20:40.066Z,17.70
2023-04-28T12:23:19.677Z,17.70
2023-04-28T12:26:17.807Z,17.70
2023-04-28T12:29:16.025Z,17.70
2023-04-28T12:32:08.048Z,17.70
2023-04-28T12:34:47.399Z,17.80
2023-04-28T12:37:45.344Z,17.80
2023-04-28T12:40:24.687Z,17.80
2023-04-28T12:43:04.369Z,17.80
2023-04-28T12:45:06.608Z,17.80
2023-04-28T12:47:27.088Z,17.80
2023-04-28T12:50:06.777Z,17.80
2023-04-28T12:53:04.638Z,17.90
2023-04-28T12:55:25.656Z,17.90
2023-04-28T12:58:04.993Z,17.90
2023-04-28T13:00:26.052Z,17.90
2023-04-28T13:02:28.352Z,17.90
2023-04-28T13:05:07.940Z,18.00
2023-04-28T13:07:28.803Z,18.00
2023-04-28T13:10:27.068Z,18.10
2023-04-28T13:13:06.274Z,18.10
2023-04-28T13:16:04.287Z,18.10
2023-04-28T13:18:43.642Z,18.20
2023-04-28T13:21:05.616Z,18.20
2023-04-28T13:23:26.032Z,18.20
2023-04-28T13:26:05.246Z,18.20
2023-04-28T13:28:07.041Z,18.30
2023-04-28T13:31:05.085Z,18.30
2023-04-28T13:33:44.199Z,18.30
2023-04-28T13:35:45.990Z,18.40
2023-04-28T13:38:06.681Z,18.40
2023-04-28T13:40:46.422Z,18.40
2023-04-28T13:43:25.704Z,18.40
2023-04-28T13:46:23.562Z,18.40
2023-04-28T13:49:02.756Z,18.40
2023-04-28T13:51:41.900Z,18.50
2023-04-28T13:53:43.704Z,18.50
2023-04-28T13:56:23.313Z,18.50
2023-04-28T13:59:02.537Z,18.50
2023-04-28T14:01:41.931Z,18.60
2023-04-28T14:04:03.210Z,18.60
2023-04-28T14:06:05.350Z,18.60
2023-04-28T14:09:03.286Z,18.60
2023-04-28T14:11:23.712Z,18.70
2023-04-28T14:14:02.814Z,18.70
2023-04-28T14:16:42.414Z,18.80
2023-04-28T14:19:40.517Z,18.80
2023-04-28T14:22:00.842Z,18.90
2023-04-28T14:24:21.651Z,19.00
2023-04-28T14:27:00.964Z,19.00
2023-04-28T14:29:21.355Z,19.00
2023-04-28T14:32:19.475Z,19.00
2023-04-28T14:34:21.300Z,19.10
2023-04-28T14:37:00.119Z,19.10
2023-04-28T14:39:39.955Z,19.10
2023-04-28T14:42:00.052Z,19.20
2023-04-28T14:44:58.312Z,19.20
2023-04-28T14:47:37.580Z,19.20
2023-04-28T14:50:16.896Z,19.20
2023-04-28T14:52:56.242Z,19.20
2023-04-28T14:55:16.766Z,19.20
2023-04-28T14:58:15.292Z,19.20
2023-04-28T15:00:54.725Z,19.20
2023-04-28T15:06:56.230Z,19.20
2023-04-28T15:09:16.299Z,19.10
2023-04-28T15:11:36.565Z,19.10
2023-04-28T15:14:15.904Z,19.10
2023-04-28T15:17:14.127Z,19.00
2023-04-28T15:19:34.429Z,19.00
2023-04-28T15:21:36.707Z,19.00
2023-04-28T15:24:16.399Z,19.00
2023-04-28T15:27:14.735Z,19.00
2023-04-28T15:29:54.207Z,19.00
2023-04-28T15:32:15.068Z,19.00
2023-04-28T15:34:54.928Z,19.00
2023-04-28T15:37:15.189Z,19.00
2023-04-28T15:39:36.410Z,19.00
2023-04-28T15:41:57.034Z,19.00
2023-04-28T15:44:17.534Z,18.90
2023-04-28T15:46:19.331Z,18.90
2023-04-28T15:48:58.957Z,18.90
2023-04-28T15:51:38.080Z,18.90
2023-04-28T15:54:17.726Z,18.90
2023-04-28T15:56:57.317Z,18.90
2023-04-28T15:59:36.699Z,18.90
2023-04-28T16:02:16.144Z,18.90
2023-04-28T16:04:55.712Z,18.90
2023-04-28T16:07:53.914Z,18.90
2023-04-28T16:10:14.523Z,18.90
2023-04-28T16:12:53.742Z,19.00
2023-04-28T16:15:14.693Z,19.00
2023-04-28T16:17:17.322Z,19.00
2023-04-28T16:19:38.150Z,19.00
2023-04-28T16:22:17.106Z,19.00
2023-04-28T16:25:14.990Z,19.00
2023-04-28T16:27:35.698Z,19.00
2023-04-28T16:29:56.566Z,19.10
2023-04-28T16:32:17.056Z,19.10
2023-04-28T16:34:37.524Z,19.10
2023-04-28T16:36:58.178Z,19.20
2023-04-28T16:39:37.542Z,19.20
2023-04-28T16:42:16.496Z,19.20
2023-04-28T16:44:55.755Z,19.20
2023-04-28T16:47:35.019Z,19.20
2023-04-28T16:50:17.791Z,19.30
2023-04-28T16:52:38.516Z,19.30
2023-04-28T16:55:17.284Z,19.30
2023-04-28T16:57:19.098Z,19.30
2023-04-28T16:59:58.018Z,19.30
2023-04-28T17:02:56.230Z,19.30
2023-04-28T17:05:17.133Z,19.30
2023-04-28T17:07:57.836Z,19.30
2023-04-28T17:10:18.781Z,19.40
2023-04-28T17:12:39.197Z,19.40
2023-04-28T17:14:59.679Z,19.40
2023-04-28T17:17:57.612Z,19.40
2023-04-28T17:20:37.152Z,19.30
2023-04-28T17:22:38.957Z,19.30
2023-04-28T17:25:01.469Z,19.30
2023-04-28T17:27:21.768Z,19.30
2023-04-28T17:29:42.900Z,19.30
2023-04-28T17:31:45.773Z,19.30
2023-04-28T17:34:06.346Z,19.30
2023-04-28T17:36:27.296Z,19.30
2023-04-28T17:39:06.735Z,19.30
2023-04-28T17:41:45.732Z,19.30
2023-04-28T17:44:25.489Z,19.20
2023-04-28T17:46:46.514Z,19.20
2023-04-28T17:49:07.091Z,19.10
2023-04-28T17:51:27.917Z,19.10
2023-04-28T17:54:25.920Z,19.10
2023-04-28T17:57:05.031Z,19.10
2023-04-28T17:59:44.567Z,19.10
2023-04-28T18:02:05.496Z,19.10
2023-04-28T18:04:26.364Z,19.00
2023-04-28T18:06:47.583Z,19.00
2023-04-28T18:09:08.439Z,19.10
2023-04-28T18:11:29.269Z,19.00
2023-04-28T18:13:49.530Z,19.10
2023-04-28T18:16:14.987Z,19.00
2023-04-28T18:18:54.078Z,19.10
2023-04-28T18:21:14.606Z,19.10
2023-04-28T18:23:53.998Z,19.10
2023-04-28T18:26:33.190Z,19.10
2023-04-28T18:29:12.911Z,19.00
2023-04-28T18:31:52.148Z,19.00
2023-04-28T18:34:12.768Z,19.00
2023-04-28T18:36:51.878Z,19.00
2023-04-28T18:39:31.308Z,19.00
2023-04-28T18:41:34.439Z,19.00
2023-04-28T18:44:14.025Z,19.10
2023-04-28T18:46:52.858Z,19.00
2023-04-28T18:49:32.383Z,19.00
2023-04-28T18:52:11.734Z,19.00
2023-04-28T18:54:31.969Z,19.10
2023-04-28T18:56:52.678Z,19.00
2023-04-28T18:59:32.465Z,19.00
2023-04-28T19:02:11.679Z,19.00
2023-04-28T19:04:51.194Z,19.10
2023-04-28T19:07:11.858Z,19.00
2023-04-28T19:09:14.444Z,19.00
2023-04-28T19:11:35.294Z,19.00
2023-04-28T19:13:55.797Z,19.00
2023-04-28T19:16:16.216Z,19.00
2023-04-28T19:18:38.136Z,19.00
2023-04-28T19:21:17.755Z,19.00
2023-04-28T19:23:56.677Z,19.00
2023-04-28T19:26:17.130Z,19.00
2023-04-28T19:28:56.510Z,19.00
2023-04-28T19:31:54.700Z,19.00
2023-04-28T19:33:57.529Z,19.00
2023-04-28T19:36:17.877Z,19.00
2023-04-28T19:38:38.683Z,19.00
2023-04-28T19:41:18.324Z,19.00
2023-04-28T19:43:57.477Z,19.00
2023-04-28T19:46:18.304Z,19.00
2023-04-28T19:48:57.667Z,19.00
2023-04-28T19:51:18.417Z,19.00
2023-04-28T19:53:40.683Z,19.00
2023-04-28T19:56:19.446Z,19.00
2023-04-28T19:58:59.208Z,19.10
2023-04-28T20:01:01.738Z,19.00
2023-04-28T20:04:00.459Z,19.00
2023-04-28T20:06:21.638Z,19.00
2023-04-28T20:09:00.973Z,19.00
2023-04-28T20:11:21.603Z,19.00
2023-04-28T20:13:42.148Z,19.00
2023-04-28T20:16:03.247Z,19.00
2023-04-28T20:19:01.608Z,19.00
2023-04-28T20:21:22.389Z,18.90
2023-04-28T20:23:42.909Z,18.90
2023-04-28T20:26:22.493Z,18.90
2023-04-28T20:29:03.695Z,18.90
2023-04-28T20:31:24.304Z,18.90
2023-04-28T20:34:22.607Z,18.80
2023-04-28T20:36:24.609Z,18.80
2023-04-28T20:39:05.322Z,18.80
2023-04-28T20:41:45.024Z,18.80
2023-04-28T20:44:05.442Z,18.80
2023-04-28T20:46:26.217Z,18.80
2023-04-28T20:48:46.969Z,18.80
2023-04-28T20:51:07.498Z,18.80
2023-04-28T20:53:28.069Z,18.80
2023-04-28T20:56:08.145Z,18.80
2023-04-28T20:58:10.048Z,18.70
2023-04-28T21:00:30.971Z,18.70
2023-04-28T21:02:51.870Z,18.70
2023-04-28T21:05:12.582Z,18.70
2023-04-28T21:07:32.914Z,18.70
2023-04-28T21:09:54.529Z,18.70
2023-04-28T21:12:33.508Z,18.70
2023-04-28T21:14:54.126Z,18.60
2023-04-28T21:17:14.564Z,18.60
2023-04-28T21:19:34.689Z,18.60
2023-04-28T21:21:37.643Z,18.60
2023-04-28T21:23:40.426Z,18.50
2023-04-28T21:26:19.926Z,18.50
2023-04-28T21:29:17.846Z,18.50
2023-04-28T21:31:57.399Z,18.50
2023-04-28T21:34:37.086Z,18.50
2023-04-28T21:37:16.392Z,18.40
2023-04-28T21:39:18.185Z,18.40
2023-04-28T21:41:57.618Z,18.40
2023-04-28T21:44:17.774Z,18.40
2023-04-28T21:46:38.961Z,18.30
2023-04-28T21:48:59.331Z,18.30
2023-04-28T21:51:19.430Z,18.30
2023-04-28T21:53:39.780Z,18.30
2023-04-28T21:56:19.285Z,18.30
2023-04-28T21:58:58.325Z,18.20
2023-04-28T22:01:37.213Z,18.20
2023-04-28T22:04:16.846Z,18.20
2023-04-28T22:06:37.608Z,18.20
2023-04-28T22:09:16.622Z,18.20
2023-04-28T22:11:55.840Z,18.10
2023-04-28T22:14:30.461Z,18.10
2023-04-28T22:17:16.324Z,18.10
2023-04-28T22:19:37.060Z,18.10
2023-04-28T22:22:34.696Z,18.10
2023-04-28T22:25:32.580Z,18.10
2023-04-28T22:27:53.149Z,18.10
2023-04-28T22:30:13.476Z,18.10
2023-04-28T22:32:15.251Z,18.10
2023-04-28T22:34:18.048Z,18.00
2023-04-28T22:36:21.660Z,18.10
2023-04-28T22:38:23.406Z,18.00
2023-04-28T22:40:25.064Z,18.00
2023-04-28T22:42:26.825Z,18.10
2023-04-28T22:44:28.605Z,18.10
2023-04-28T22:46:30.502Z,18.10
2023-04-28T22:48:32.726Z,18.10
2023-04-28T22:50:34.429Z,18.00
2023-04-28T22:52:36.469Z,18.00
2023-04-28T22:54:39.220Z,18.00
2023-04-28T22:56:41.306Z,18.00
2023-04-28T22:58:43.053Z,18.00
2023-04-28T23:00:44.753Z,18.00
2023-04-28T23:02:46.679Z,18.00
2023-04-28T23:04:49.068Z,18.00
2023-04-28T23:06:50.973Z,18.00
2023-04-28T23:08:52.729Z,18.00
2023-04-28T23:10:55.439Z,18.00
2023-04-28T23:12:57.134Z,18.00
2023-04-28T23:14:58.880Z,18.00
2023-04-28T23:17:00.672Z,18.00
2023-04-28T23:19:02.453Z,18.00
2023-04-28T23:21:04.139Z,18.00
2023-04-28T23:23:05.821Z,18.00
2023-04-28T23:25:07.746Z,18.00
2023-04-28T23:27:09.758Z,18.00
2023-04-28T23:29:11.559Z,17.90
2023-04-28T23:31:13.355Z,17.90
2023-04-28T23:33:15.136Z,17.90
2023-04-28T23:35:16.961Z,17.90
2023-04-28T23:37:18.631Z,17.90
2023-04-28T23:39:20.321Z,17.90
2023-04-28T23:41:21.927Z,17.90
2023-04-28T23:43:23.606Z,17.90
2023-04-28T23:45:25.442Z,17.90
2023-04-28T23:47:27.284Z,17.90
2023-04-28T23:49:28.965Z,17.90
2023-04-28T23:51:32.198Z,17.90
2023-04-28T23:53:33.892Z,17.90
2023-04-28T23:55:35.554Z,17.80
2023-04-28T23:57:37.474Z,17.80
2023-04-28T23:59:39.139Z,17.80
